createdAt,value
2023-02-13T00:00:38.466Z,18.23
2023-02-13T00:03:06.275Z,17.27
2023-02-13T00:05:34.078Z,17.63
2023-02-13T00:08:01.758Z,15.43
2023-02-13T00:10:29.663Z,15.37
2023-02-13T00:12:57.332Z,16.10
2023-02-13T00:15:25.112Z,14.10
2023-02-13T00:17:52.781Z,13.67
2023-02-13T00:20:20.576Z,16.00
2023-02-13T00:22:48.274Z,13.37
2023-02-13T00:25:16.013Z,13.03
2023-02-13T00:27:43.852Z,14.57
2023-02-13T00:30:12.008Z,13.77
2023-02-13T00:32:39.741Z,16.23
2023-02-13T00:35:07.710Z,15.57
2023-02-13T00:37:35.382Z,15.17
2023-02-13T00:40:03.283Z,13.73
2023-02-13T00:42:31.156Z,12.70
2023-02-13T00:44:58.891Z,14.37
2023-02-13T00:47:26.569Z,15.87
2023-02-13T00:49:54.312Z,15.23
2023-02-13T00:52:21.986Z,15.83
2023-02-13T00:54:51.183Z,15.40
2023-02-13T00:57:18.850Z,15.27
2023-02-13T00:59:46.585Z,15.00
2023-02-13T01:02:14.499Z,14.93
2023-02-13T01:04:42.338Z,16.23
2023-02-13T01:07:10.051Z,17.43
2023-02-13T01:09:37.738Z,20.60
2023-02-13T01:12:05.572Z,18.97
2023-02-13T01:14:33.527Z,15.97
2023-02-13T01:17:01.252Z,15.87
2023-02-13T01:19:28.951Z,15.50
2023-02-13T01:21:56.686Z,16.13
2023-02-13T01:24:24.403Z,14.80
2023-02-13T01:26:52.548Z,12.87
2023-02-13T01:29:21.882Z,13.93
2023-02-13T01:31:49.915Z,11.87
2023-02-13T01:34:18.376Z,14.27
2023-02-13T01:36:46.140Z,14.67
2023-02-13T01:39:13.840Z,12.53
2023-02-13T01:41:41.636Z,13.87
2023-02-13T01:44:47.804Z,13.50
2023-02-13T01:47:22.922Z,13.50
2023-02-13T01:49:51.706Z,14.27
2023-02-13T01:52:19.423Z,13.37
2023-02-13T01:54:47.122Z,12.70
2023-02-13T01:57:18.252Z,12.13
2023-02-13T01:59:55.481Z,11.80
2023-02-13T02:02:23.335Z,12.40
2023-02-13T02:04:51.485Z,13.33
2023-02-13T02:07:25.566Z,10.57
2023-02-13T02:10:02.046Z,12.17
2023-02-13T02:12:37.976Z,12.30
2023-02-13T02:15:08.058Z,9.73
2023-02-13T02:17:35.781Z,11.60
2023-02-13T02:20:19.657Z,11.23
2023-02-13T02:23:13.520Z,10.47
2023-02-13T02:25:54.309Z,9.73
2023-02-13T02:28:29.914Z,10.63
2023-02-13T02:31:18.373Z,10.20
2023-02-13T02:33:58.292Z,11.60
2023-02-13T02:36:54.672Z,10.67
2023-02-13T02:39:44.402Z,10.47
2023-02-13T02:42:15.263Z,9.37
2023-02-13T02:44:52.404Z,14.80
2023-02-13T02:47:45.386Z,10.37
2023-02-13T02:50:15.154Z,10.60
2023-02-13T02:53:04.101Z,12.40
2023-02-13T02:55:52.691Z,10.10
2023-02-13T02:58:45.344Z,10.43
2023-02-13T03:01:35.462Z,10.87
2023-02-13T03:04:22.214Z,12.47
2023-02-13T03:06:53.546Z,10.90
2023-02-13T03:09:45.833Z,11.10
2023-02-13T03:12:32.673Z,11.17
2023-02-13T03:15:00.370Z,8.77
2023-02-13T03:17:46.552Z,11.40
2023-02-13T03:20:58.609Z,10.07
2023-02-13T03:24:06.207Z,10.23
2023-02-13T03:27:08.446Z,10.30
2023-02-13T03:30:11.409Z,11.13
2023-02-13T03:33:07.994Z,10.73
2023-02-13T03:36:24.274Z,10.33
2023-02-13T03:39:03.171Z,10.17
2023-02-13T03:41:38.598Z,9.57
2023-02-13T03:44:24.978Z,9.07
2023-02-13T03:46:53.620Z,9.53
2023-02-13T03:49:52.814Z,9.97
2023-02-13T03:52:41.747Z,10.70
2023-02-13T03:55:30.597Z,9.13
2023-02-13T03:58:19.426Z,8.63
2023-02-13T04:00:50.069Z,9.47
2023-02-13T04:03:48.566Z,8.43
2023-02-13T04:06:19.839Z,9.13
2023-02-13T04:08:47.569Z,9.77
2023-02-13T04:11:25.798Z,8.37
2023-02-13T04:13:53.446Z,11.00
2023-02-13T04:16:32.317Z,9.43
2023-02-13T04:19:00.138Z,9.47
2023-02-13T04:21:27.909Z,9.30
2023-02-13T04:23:55.627Z,11.83
2023-02-13T04:26:23.444Z,12.23
2023-02-13T04:28:51.198Z,9.37
2023-02-13T04:31:18.973Z,9.33
2023-02-13T04:33:46.822Z,10.93
2023-02-13T04:36:14.532Z,10.63
2023-02-13T04:38:42.256Z,9.53
2023-02-13T04:41:09.950Z,10.03
2023-02-13T04:43:37.689Z,9.73
2023-02-13T04:46:05.575Z,15.90
2023-02-13T04:48:33.383Z,13.90
2023-02-13T04:51:01.077Z,12.93
2023-02-13T04:53:28.786Z,13.83
2023-02-13T04:55:56.548Z,11.50
2023-02-13T04:58:24.261Z,11.63
2023-02-13T05:00:52.010Z,13.33
2023-02-13T05:03:19.697Z,13.53
2023-02-13T05:05:48.437Z,13.17
2023-02-13T05:08:16.186Z,12.53
2023-02-13T05:10:43.884Z,11.80
2023-02-13T05:13:12.118Z,13.90
2023-02-13T05:15:39.924Z,12.83
2023-02-13T05:18:07.605Z,14.47
2023-02-13T05:20:35.356Z,11.27
2023-02-13T05:23:21.557Z,12.37
2023-02-13T05:25:49.435Z,10.90
2023-02-13T05:28:35.650Z,11.37
2023-02-13T05:31:03.729Z,9.60
2023-02-13T05:33:31.987Z,8.50
2023-02-13T05:35:59.728Z,9.33
2023-02-13T05:38:27.396Z,8.70
2023-02-13T05:40:55.592Z,7.33
2023-02-13T05:43:23.572Z,7.30
2023-02-13T05:45:52.287Z,7.30
2023-02-13T05:48:19.995Z,8.43
2023-02-13T05:50:48.275Z,7.17
2023-02-13T05:53:16.005Z,9.17
2023-02-13T05:55:43.735Z,6.00
2023-02-13T05:58:12.010Z,5.90
2023-02-13T06:00:39.801Z,6.03
2023-02-13T06:03:07.663Z,6.90
2023-02-13T06:05:35.412Z,6.83
2023-02-13T06:08:03.368Z,6.93
2023-02-13T06:10:31.128Z,6.70
2023-02-13T06:12:58.855Z,6.30
2023-02-13T06:15:26.600Z,7.20
2023-02-13T06:17:54.305Z,7.40
2023-02-13T06:20:22.091Z,7.83
2023-02-13T06:22:50.706Z,9.93
2023-02-13T06:25:19.259Z,10.90
2023-02-13T06:27:46.969Z,10.20
2023-02-13T06:30:15.310Z,9.67
2023-02-13T06:32:43.299Z,9.53
2023-02-13T06:35:11.004Z,9.93
2023-02-13T06:37:39.327Z,11.13
2023-02-13T06:40:08.096Z,12.03
2023-02-13T06:42:35.779Z,11.80
2023-02-13T06:45:03.749Z,12.17
2023-02-13T06:47:31.558Z,11.23
2023-02-13T06:49:59.295Z,13.30
2023-02-13T06:52:27.475Z,13.23
2023-02-13T06:54:55.216Z,13.40
2023-02-13T06:57:23.107Z,13.57
2023-02-13T06:59:50.883Z,16.47
2023-02-13T07:02:18.640Z,17.73
2023-02-13T07:04:46.334Z,19.13
2023-02-13T07:07:14.115Z,18.30
2023-02-13T07:09:41.892Z,20.93
2023-02-13T07:12:09.598Z,22.27
2023-02-13T07:14:37.350Z,21.60
2023-02-13T07:17:05.063Z,22.77
2023-02-13T07:19:32.990Z,23.67
2023-02-13T07:22:00.737Z,23.80
2023-02-13T07:24:28.466Z,22.93
2023-02-13T07:26:56.188Z,23.77
2023-02-13T07:29:23.971Z,19.50
2023-02-13T07:31:51.661Z,19.50
2023-02-13T07:34:19.431Z,25.47
2023-02-13T07:36:47.128Z,26.20
2023-02-13T07:39:14.904Z,23.80
2023-02-13T07:41:42.595Z,21.90
2023-02-13T07:44:10.422Z,21.25
2023-02-13T07:46:38.300Z,18.77
2023-02-13T07:49:06.027Z,18.45
2023-02-13T07:51:33.803Z,17.98
2023-02-13T07:54:02.146Z,17.70
2023-02-13T07:56:30.021Z,17.52
2023-02-13T07:58:57.732Z,16.67
2023-02-13T08:01:25.613Z,19.58
2023-02-13T08:03:53.460Z,21.60
2023-02-13T08:06:21.347Z,24.48
2023-02-13T08:08:49.115Z,22.02
2023-02-13T08:11:43.245Z,22.60
2023-02-13T08:14:11.046Z,24.80
2023-02-13T08:16:38.760Z,27.50
2023-02-13T08:19:06.519Z,24.20
2023-02-13T08:21:35.332Z,25.05
2023-02-13T08:24:03.062Z,24.13
2023-02-13T08:26:33.901Z,16.35
2023-02-13T08:29:01.882Z,16.75
2023-02-13T08:31:29.703Z,16.02
2023-02-13T08:33:57.734Z,12.52
2023-02-13T08:36:25.538Z,14.82
2023-02-13T08:38:53.265Z,15.05
2023-02-13T08:41:22.163Z,14.35
2023-02-13T08:43:50.072Z,17.20
2023-02-13T08:46:18.216Z,14.52
2023-02-13T08:48:46.024Z,14.23
2023-02-13T08:51:14.048Z,14.30
2023-02-13T08:53:42.552Z,14.43
2023-02-13T08:56:10.935Z,13.70
2023-02-13T08:58:38.701Z,13.23
2023-02-13T09:01:09.725Z,13.77
2023-02-13T09:03:37.565Z,13.00
2023-02-13T09:06:05.543Z,13.80
2023-02-13T09:08:34.980Z,13.73
2023-02-13T09:11:03.786Z,14.18
2023-02-13T09:13:35.403Z,15.52
2023-02-13T09:16:07.051Z,15.00
2023-02-13T09:18:35.269Z,14.87
2023-02-13T09:21:05.420Z,15.57
2023-02-13T09:23:33.955Z,14.80
2023-02-13T09:26:02.273Z,16.53
2023-02-13T09:28:30.481Z,15.60
2023-02-13T09:30:58.451Z,14.83
2023-02-13T09:33:26.399Z,13.67
2023-02-13T09:35:54.148Z,13.60
2023-02-13T09:38:21.848Z,13.90
2023-02-13T09:40:51.995Z,14.67
2023-02-13T09:43:33.599Z,12.97
2023-02-13T09:46:05.627Z,12.40
2023-02-13T09:48:35.675Z,10.93
2023-02-13T09:51:03.589Z,10.97
2023-02-13T09:53:33.459Z,11.40
2023-02-13T09:56:12.922Z,11.33
2023-02-13T09:58:47.839Z,12.23
2023-02-13T10:01:34.422Z,11.33
2023-02-13T10:04:32.136Z,11.97
2023-02-13T10:07:22.664Z,15.10
2023-02-13T10:10:22.798Z,13.30
2023-02-13T10:12:53.132Z,10.30
2023-02-13T10:15:51.970Z,10.43
2023-02-13T10:18:22.095Z,10.80
2023-02-13T10:20:54.198Z,9.37
2023-02-13T10:23:26.363Z,8.47
2023-02-13T10:25:58.357Z,8.40
2023-02-13T10:28:41.573Z,7.67
2023-02-13T10:31:16.450Z,10.13
2023-02-13T10:33:56.020Z,7.87
2023-02-13T10:36:31.731Z,7.27
2023-02-13T10:39:05.608Z,8.10
2023-02-13T10:41:43.076Z,7.53
2023-02-13T10:44:35.351Z,6.40
2023-02-13T10:47:24.364Z,7.17
2023-02-13T10:50:10.568Z,7.00
2023-02-13T10:52:51.621Z,8.90
2023-02-13T10:55:35.496Z,8.50
2023-02-13T10:58:17.457Z,8.43
2023-02-13T11:00:48.154Z,7.47
2023-02-13T11:03:20.218Z,8.03
2023-02-13T11:05:48.096Z,7.47
2023-02-13T11:08:43.279Z,8.67
2023-02-13T11:11:38.118Z,7.83
2023-02-13T11:14:13.316Z,8.13
2023-02-13T11:16:53.931Z,9.50
2023-02-13T11:19:24.406Z,8.50
2023-02-13T11:22:50.695Z,7.03
2023-02-13T11:25:22.387Z,6.63
2023-02-13T11:27:50.896Z,12.33
2023-02-13T11:30:34.505Z,10.33
2023-02-13T11:33:06.137Z,7.80
2023-02-13T11:35:35.240Z,9.23
2023-02-13T11:38:12.249Z,7.23
2023-02-13T11:40:41.789Z,7.10
2023-02-13T11:43:23.901Z,6.17
2023-02-13T11:46:09.177Z,7.53
2023-02-13T11:48:36.950Z,9.03
2023-02-13T11:51:04.815Z,7.90
2023-02-13T11:53:36.676Z,5.47
2023-02-13T11:56:04.344Z,5.90
2023-02-13T11:58:32.242Z,5.40
2023-02-13T12:01:21.521Z,8.27
2023-02-13T12:04:01.511Z,5.40
2023-02-13T12:06:29.425Z,5.07
2023-02-13T12:08:57.075Z,6.17
2023-02-13T12:11:48.857Z,4.90
2023-02-13T12:14:28.878Z,22.30
2023-02-13T12:17:05.878Z,16.50
2023-02-13T12:19:47.459Z,10.47
2023-02-13T12:22:52.964Z,8.10
2023-02-13T12:25:43.039Z,10.63
2023-02-13T12:28:18.611Z,11.13
2023-02-13T12:31:00.074Z,5.93
2023-02-13T12:33:50.685Z,11.03
2023-02-13T12:36:24.848Z,13.03
2023-02-13T12:38:58.633Z,20.83
2023-02-13T12:41:43.300Z,7.03
2023-02-13T12:44:14.032Z,7.37
2023-02-13T12:46:52.956Z,25.17
2023-02-13T12:49:44.699Z,14.97
2023-02-13T12:52:33.469Z,6.33
2023-02-13T12:55:14.253Z,10.63
2023-02-13T12:58:03.268Z,9.77
2023-02-13T13:00:42.107Z,9.40
2023-02-13T13:03:38.937Z,8.20
2023-02-13T13:06:19.816Z,6.87
2023-02-13T13:08:59.803Z,6.23
2023-02-13T13:11:34.489Z,7.23
2023-02-13T13:14:11.236Z,7.83
2023-02-13T13:16:48.406Z,11.77
2023-02-13T13:19:25.781Z,15.07
2023-02-13T13:22:11.560Z,9.47
2023-02-13T13:24:48.501Z,10.70
2023-02-13T13:27:33.878Z,7.47
2023-02-13T13:30:26.099Z,5.90
2023-02-13T13:33:15.749Z,5.97
2023-02-13T13:35:47.855Z,12.17
2023-02-13T13:38:19.557Z,11.50
2023-02-13T13:40:50.238Z,8.17
2023-02-13T13:43:40.707Z,15.33
2023-02-13T13:46:32.584Z,7.93
2023-02-13T13:49:25.115Z,6.80
2023-02-13T13:51:52.881Z,5.77
2023-02-13T13:54:23.716Z,9.40
2023-02-13T13:56:54.392Z,7.23
2023-02-13T13:59:34.206Z,8.63
2023-02-13T14:02:16.895Z,7.97
2023-02-13T14:05:12.300Z,11.00
2023-02-13T14:07:43.731Z,9.77
2023-02-13T14:10:26.597Z,7.07
2023-02-13T14:12:57.100Z,6.17
2023-02-13T14:15:34.046Z,15.37
2023-02-13T14:18:12.925Z,9.53
2023-02-13T14:20:41.775Z,7.83
2023-02-13T14:23:28.140Z,8.73
2023-02-13T14:26:16.899Z,6.57
2023-02-13T14:28:50.391Z,6.10
2023-02-13T14:31:44.108Z,6.27
2023-02-13T14:34:11.858Z,9.67
2023-02-13T14:36:44.352Z,10.97
2023-02-13T14:39:30.835Z,15.37
2023-02-13T14:42:00.197Z,10.63
2023-02-13T14:45:00.033Z,11.10
2023-02-13T14:47:33.689Z,15.23
2023-02-13T14:50:02.028Z,8.67
2023-02-13T14:52:35.488Z,9.90
2023-02-13T14:55:04.280Z,8.40
2023-02-13T14:57:44.413Z,7.10
2023-02-13T15:00:30.691Z,6.83
2023-02-13T15:03:05.181Z,7.50
2023-02-13T15:05:34.010Z,6.97
2023-02-13T15:08:15.441Z,6.13
2023-02-13T15:10:46.976Z,6.37
2023-02-13T15:13:16.795Z,6.50
2023-02-13T15:15:45.371Z,6.17
2023-02-13T15:18:24.594Z,5.80
2023-02-13T15:20:54.514Z,7.47
2023-02-13T15:23:33.029Z,7.23
2023-02-13T15:26:02.036Z,6.60
2023-02-13T15:28:30.152Z,7.53
2023-02-13T15:30:59.370Z,7.03
2023-02-13T15:33:36.008Z,6.40
2023-02-13T15:36:06.090Z,6.40
2023-02-13T15:38:36.460Z,5.37
2023-02-13T15:41:12.950Z,5.17
2023-02-13T15:43:45.980Z,4.67
2023-02-13T15:46:28.184Z,4.63
2023-02-13T15:48:57.889Z,5.53
2023-02-13T15:51:27.477Z,4.73
2023-02-13T15:54:05.797Z,5.27
2023-02-13T15:56:33.628Z,6.43
2023-02-13T15:59:01.308Z,6.33
2023-02-13T16:01:29.158Z,7.90
2023-02-13T16:04:00.818Z,7.10
2023-02-13T16:06:28.561Z,9.30
2023-02-13T16:08:57.844Z,7.90
2023-02-13T16:11:28.265Z,7.83
2023-02-13T16:14:11.038Z,6.03
2023-02-13T16:17:04.866Z,6.37
2023-02-13T16:19:51.702Z,5.40
2023-02-13T16:22:39.731Z,4.97
2023-02-13T16:25:12.408Z,14.90
2023-02-13T16:27:47.555Z,18.87
2023-02-13T16:30:41.131Z,17.13
2023-02-13T16:33:32.574Z,8.97
2023-02-13T16:36:09.240Z,20.07
2023-02-13T16:38:44.271Z,8.37
2023-02-13T16:41:17.822Z,8.17
2023-02-13T16:43:51.954Z,9.40
2023-02-13T16:46:36.262Z,13.53
2023-02-13T16:49:08.060Z,10.87
2023-02-13T16:51:55.159Z,17.07
2023-02-13T16:54:30.317Z,9.70
2023-02-13T16:57:05.349Z,8.53
2023-02-13T16:59:47.761Z,8.40
2023-02-13T17:02:21.286Z,8.00
2023-02-13T17:04:53.745Z,8.57
2023-02-13T17:07:23.498Z,10.10
2023-02-13T17:09:59.561Z,10.03
2023-02-13T17:12:28.268Z,9.90
2023-02-13T17:14:59.821Z,9.17
2023-02-13T17:17:30.397Z,11.33
2023-02-13T17:19:58.962Z,15.17
2023-02-13T17:22:36.856Z,12.23
2023-02-13T17:25:07.515Z,9.27
2023-02-13T17:27:35.294Z,8.70
2023-02-13T17:30:03.163Z,9.97
2023-02-13T17:32:30.954Z,10.43
2023-02-13T17:34:58.675Z,11.40
2023-02-13T17:37:27.367Z,12.43
2023-02-13T17:39:55.051Z,11.27
2023-02-13T17:42:27.016Z,9.90
2023-02-13T17:44:56.531Z,10.53
2023-02-13T17:47:25.126Z,9.50
2023-02-13T17:49:59.201Z,12.03
2023-02-13T17:52:32.634Z,11.67
2023-02-13T17:55:00.342Z,11.57
2023-02-13T17:57:28.111Z,10.53
2023-02-13T17:59:56.946Z,12.43
2023-02-13T18:02:26.595Z,12.43
2023-02-13T18:04:54.392Z,11.50
2023-02-13T18:07:22.363Z,10.80
2023-02-13T18:09:50.328Z,10.23
2023-02-13T18:12:22.892Z,11.23
2023-02-13T18:14:51.391Z,9.57
2023-02-13T18:17:19.257Z,10.80
2023-02-13T18:19:47.018Z,10.47
2023-02-13T18:22:15.007Z,9.57
2023-02-13T18:24:42.764Z,10.27
2023-02-13T18:27:12.292Z,9.97
2023-02-13T18:29:40.285Z,8.17
2023-02-13T18:32:10.232Z,9.90
2023-02-13T18:34:39.016Z,9.33
2023-02-13T18:37:07.015Z,10.53
2023-02-13T18:39:34.866Z,11.17
2023-02-13T18:42:02.732Z,10.00
2023-02-13T18:44:30.637Z,9.03
2023-02-13T18:46:58.517Z,9.23
2023-02-13T18:49:26.246Z,9.57
2023-02-13T18:51:54.017Z,10.23
2023-02-13T18:54:21.718Z,12.17
2023-02-13T18:56:49.480Z,14.27
2023-02-13T18:59:18.567Z,21.00
2023-02-13T19:01:46.419Z,29.53
2023-02-13T19:04:14.133Z,28.23
2023-02-13T19:06:42.482Z,23.70
2023-02-13T19:09:10.273Z,14.87
2023-02-13T19:11:38.994Z,13.60
2023-02-13T19:14:06.810Z,12.13
2023-02-13T19:16:35.026Z,9.27
2023-02-13T19:19:04.365Z,7.80
2023-02-13T19:21:33.109Z,7.23
2023-02-13T19:24:02.216Z,6.80
2023-02-13T19:26:29.942Z,6.70
2023-02-13T19:28:57.798Z,9.70
2023-02-13T19:31:30.164Z,13.83
2023-02-13T19:33:59.504Z,14.47
2023-02-13T19:36:28.813Z,16.43
2023-02-13T19:38:58.226Z,14.60
2023-02-13T19:41:26.078Z,13.10
2023-02-13T19:43:53.865Z,15.83
2023-02-13T19:46:23.230Z,17.83
2023-02-13T19:48:51.219Z,15.97
2023-02-13T19:51:21.187Z,15.43
2023-02-13T19:53:48.987Z,15.37
2023-02-13T19:56:16.665Z,14.10
2023-02-13T19:58:44.453Z,10.83
2023-02-13T20:01:16.996Z,10.83
2023-02-13T20:03:44.957Z,10.93
2023-02-13T20:06:15.086Z,10.07
2023-02-13T20:08:43.169Z,10.37
2023-02-13T20:11:12.119Z,40.40
2023-02-13T20:13:39.876Z,14.83
2023-02-13T20:16:08.981Z,10.20
2023-02-13T20:18:37.025Z,8.73
2023-02-13T20:21:15.109Z,8.57
2023-02-13T20:23:43.246Z,8.70
2023-02-13T20:26:13.742Z,8.43
2023-02-13T20:28:41.705Z,8.20
2023-02-13T20:31:14.346Z,7.97
2023-02-13T20:33:42.249Z,8.47
2023-02-13T20:36:14.805Z,9.57
2023-02-13T20:38:42.645Z,10.47
2023-02-13T20:41:11.090Z,8.80
2023-02-13T20:43:38.843Z,9.70
2023-02-13T20:46:06.777Z,9.73
2023-02-13T20:48:38.305Z,7.80
2023-02-13T20:51:07.719Z,11.27
2023-02-13T20:53:35.416Z,10.83
2023-02-13T20:56:06.601Z,12.50
2023-02-13T20:58:34.644Z,11.83
2023-02-13T21:01:02.826Z,12.40
2023-02-13T21:03:30.754Z,13.13
2023-02-13T21:05:58.521Z,13.70
2023-02-13T21:08:26.293Z,13.40
2023-02-13T21:10:53.998Z,12.77
2023-02-13T21:13:21.749Z,14.13
2023-02-13T21:15:53.661Z,17.03
2023-02-13T21:18:21.548Z,15.10
2023-02-13T21:20:49.895Z,12.33
2023-02-13T21:23:17.670Z,14.63
2023-02-13T21:25:45.405Z,17.83
2023-02-13T21:28:13.154Z,15.50
2023-02-13T21:30:40.858Z,16.07
2023-02-13T21:33:08.617Z,16.20
2023-02-13T21:35:36.275Z,12.00
2023-02-13T21:38:04.007Z,15.63
2023-02-13T21:40:31.677Z,13.63
2023-02-13T21:42:59.436Z,12.37
2023-02-13T21:45:27.271Z,14.33
2023-02-13T21:47:56.589Z,12.23
2023-02-13T21:50:24.378Z,11.67
2023-02-13T21:52:52.173Z,14.67
2023-02-13T21:55:19.900Z,10.83
2023-02-13T21:57:47.692Z,10.27
2023-02-13T22:00:15.914Z,10.47
2023-02-13T22:02:43.813Z,9.67
2023-02-13T22:05:11.492Z,9.27
2023-02-13T22:07:59.144Z,8.17
2023-02-13T22:10:26.916Z,8.20
2023-02-13T22:12:54.699Z,7.63
2023-02-13T22:15:22.496Z,8.33
2023-02-13T22:17:50.270Z,7.17
2023-02-13T22:20:18.899Z,7.37
2023-02-13T22:22:46.647Z,8.47
2023-02-13T22:25:14.322Z,6.97
2023-02-13T22:27:48.102Z,7.67
2023-02-13T22:30:16.008Z,7.50
2023-02-13T22:32:43.710Z,6.40
2023-02-13T22:35:11.457Z,7.83
2023-02-13T22:37:39.194Z,7.37
2023-02-13T22:40:07.919Z,7.43
2023-02-13T22:42:35.705Z,7.53
2023-02-13T22:45:03.513Z,6.47
2023-02-13T22:47:31.325Z,6.23
2023-02-13T22:49:59.008Z,7.13
2023-02-13T22:52:26.740Z,6.73
2023-02-13T22:54:54.414Z,8.20
2023-02-13T22:57:22.125Z,9.80
2023-02-13T22:59:49.785Z,8.47
2023-02-13T23:02:17.591Z,7.97
2023-02-13T23:04:47.812Z,7.03
2023-02-13T23:07:18.217Z,7.93
2023-02-13T23:09:45.991Z,6.77
2023-02-13T23:12:33.088Z,7.40
2023-02-13T23:15:00.800Z,6.87
2023-02-13T23:17:47.180Z,7.67
2023-02-13T23:20:15.130Z,7.63
2023-02-13T23:22:42.861Z,7.83
2023-02-13T23:25:10.775Z,7.37
2023-02-13T23:27:38.517Z,7.63
2023-02-13T23:30:07.293Z,6.63
2023-02-13T23:32:35.308Z,7.27
2023-02-13T23:35:03.055Z,6.67
2023-02-13T23:37:30.720Z,6.73
2023-02-13T23:39:58.442Z,8.07
2023-02-13T23:42:26.115Z,8.33
2023-02-13T23:44:53.809Z,8.77
2023-02-13T23:47:21.627Z,8.07
2023-02-13T23:49:49.394Z,10.87
2023-02-13T23:52:17.164Z,9.60
2023-02-13T23:54:46.145Z,9.10
2023-02-13T23:57:13.898Z,10.03
2023-02-13T23:59:41.699Z,10.50
